To NAV CANADA Home Page Login to a new session Search on AWWS site Disclaimer Vers la page française équivalente Tips FAQ What's new on the site To the Forecasts and Observations / NOTAM section To "File a Flight Plan" website Publications and other links Update of the User's profile FIC Telephone Numbers My Weather Data Folder Route Weather Data Regional Weather Data Local Weather Data To the Forecasts and Observations / NOTAM section
Request Generated 04/25/2019 at 08:05:43 UTC . Weather information available at that time is displayed.

METAR/TAF

INUVIK (MIKE ZUBKO)/NT    

METAR CYEV 250800Z 00000KT 15SM SKC M12/M16 A3042 RMK SLP312=
METAR CYEV 250700Z 02003KT 340V050 15SM SKC M11/M16 A3042 RMK SLP311=
METAR CYEV 250600Z 02005KT 15SM SKC M10/M16 A3042 RMK SLP312=

TAF CYEV 250638Z 2507/2519 02005KT P6SM SKC
BECMG 2515/2517 VRB03KT
RMK NXT FCST BY 251300Z=
Your time UTC time
Weather data provided by Environment Canada and NAV CANADA